createdAt,value
2019-02-11T00:02:16.776Z,6.20
2019-02-11T00:04:47.563Z,5.90
2019-02-11T00:07:17.916Z,6.20
2019-02-11T00:09:47.211Z,5.90
2019-02-11T00:12:16.139Z,6.20
2019-02-11T00:14:46.010Z,5.90
2019-02-11T00:17:14.167Z,6.10
2019-02-11T00:19:45.246Z,6.40
2019-02-11T00:22:17.559Z,6.10
2019-02-11T00:24:46.409Z,6.30
2019-02-11T00:27:27.128Z,6.00
2019-02-11T00:29:57.211Z,6.40
2019-02-11T00:32:25.262Z,6.00
2019-02-11T00:34:59.481Z,6.20
2019-02-11T00:37:28.855Z,6.20
2019-02-11T00:40:00.493Z,6.20
2019-02-11T00:42:32.262Z,6.40
2019-02-11T00:45:03.455Z,6.30
2019-02-11T00:47:36.860Z,6.30
2019-02-11T00:50:10.686Z,6.40
2019-02-11T00:52:39.878Z,6.00
2019-02-11T00:55:16.004Z,6.30
2019-02-11T00:57:44.739Z,6.00
2019-02-11T01:00:13.649Z,6.10
2019-02-11T01:02:48.730Z,5.90
2019-02-11T01:05:19.442Z,5.90
2019-02-11T01:07:50.266Z,5.90
2019-02-11T01:10:20.356Z,6.00
2019-02-11T01:12:50.822Z,6.00
2019-02-11T01:15:20.661Z,6.30
2019-02-11T01:17:52.430Z,5.80
2019-02-11T01:20:24.849Z,6.50
2019-02-11T01:22:54.372Z,5.90
2019-02-11T01:25:29.842Z,5.90
2019-02-11T01:28:00.486Z,6.10
2019-02-11T01:30:29.836Z,5.90
2019-02-11T01:32:59.912Z,5.70
2019-02-11T01:35:36.160Z,5.60
2019-02-11T01:38:06.437Z,5.90
2019-02-11T01:40:35.331Z,5.80
2019-02-11T01:43:07.436Z,5.90
2019-02-11T01:45:41.990Z,6.00
2019-02-11T01:48:11.770Z,5.80
2019-02-11T01:50:42.100Z,6.00
2019-02-11T01:53:13.826Z,5.90
2019-02-11T01:55:45.284Z,5.90
2019-02-11T01:58:18.614Z,5.50
2019-02-11T02:00:51.180Z,5.50
2019-02-11T02:03:19.526Z,5.70
2019-02-11T02:05:51.143Z,5.40
2019-02-11T02:08:20.979Z,5.50
2019-02-11T02:10:51.522Z,5.60
2019-02-11T02:13:22.939Z,5.80
2019-02-11T02:15:51.169Z,5.90
2019-02-11T02:18:19.735Z,5.70
2019-02-11T02:20:56.350Z,5.60
2019-02-11T02:23:26.174Z,5.60
2019-02-11T02:25:58.724Z,5.70
2019-02-11T02:28:30.396Z,5.70
2019-02-11T02:31:04.457Z,5.90
2019-02-11T02:33:34.214Z,5.50
2019-02-11T02:36:15.487Z,5.50
2019-02-11T02:38:45.802Z,5.50
2019-02-11T02:41:18.587Z,5.70
2019-02-11T02:44:02.666Z,5.60
2019-02-11T02:46:29.816Z,6.00
2019-02-11T02:49:01.780Z,6.00
2019-02-11T02:51:33.389Z,5.60
2019-02-11T02:54:05.555Z,5.60
2019-02-11T02:56:35.225Z,5.60
2019-02-11T02:59:07.481Z,5.80
2019-02-11T03:01:38.082Z,5.70
2019-02-11T03:04:12.176Z,5.60
2019-02-11T03:06:45.908Z,5.90
2019-02-11T03:09:14.250Z,6.00
2019-02-11T03:11:43.006Z,5.80
2019-02-11T03:14:14.362Z,5.80
2019-02-11T03:16:45.611Z,6.00
2019-02-11T03:19:14.011Z,6.10
2019-02-11T03:21:46.612Z,5.60
2019-02-11T03:24:14.870Z,6.70
2019-02-11T03:26:44.874Z,6.20
2019-02-11T03:29:13.228Z,6.20
2019-02-11T03:31:44.100Z,6.10
2019-02-11T03:34:15.276Z,6.40
2019-02-11T03:36:49.659Z,6.00
2019-02-11T03:39:20.055Z,6.40
2019-02-11T03:41:55.806Z,6.20
2019-02-11T03:44:25.001Z,6.10
2019-02-11T03:46:56.279Z,6.30
2019-02-11T03:49:24.719Z,6.30
2019-02-11T03:51:54.787Z,6.20
2019-02-11T03:54:25.199Z,6.10
2019-02-11T03:56:56.196Z,6.30
2019-02-11T03:59:26.914Z,6.10
2019-02-11T04:01:55.586Z,6.40
2019-02-11T04:04:31.484Z,6.30
2019-02-11T04:07:07.948Z,6.50
2019-02-11T04:09:39.742Z,6.20
2019-02-11T04:12:10.649Z,6.10
2019-02-11T04:14:41.787Z,6.00
2019-02-11T04:17:10.171Z,5.70
2019-02-11T04:19:42.335Z,5.70
2019-02-11T04:22:14.737Z,5.80
2019-02-11T04:24:46.401Z,5.60
2019-02-11T04:27:16.131Z,5.80
2019-02-11T04:29:44.349Z,5.60
2019-02-11T04:32:12.691Z,5.30
2019-02-11T04:34:43.415Z,5.10
2019-02-11T04:37:12.771Z,5.40
2019-02-11T04:39:45.627Z,5.40
2019-02-11T04:42:15.487Z,5.40
2019-02-11T04:44:46.950Z,5.90
2019-02-11T04:47:21.634Z,5.80
2019-02-11T04:49:49.896Z,5.90
2019-02-11T04:52:21.830Z,5.50
2019-02-11T04:54:51.368Z,6.10
2019-02-11T04:57:22.011Z,5.80
2019-02-11T04:59:49.961Z,5.90
2019-02-11T05:02:17.998Z,6.00
2019-02-11T05:04:48.491Z,6.00
2019-02-11T05:07:16.720Z,6.30
2019-02-11T05:09:47.988Z,5.90
2019-02-11T05:12:15.982Z,6.00
2019-02-11T05:14:48.028Z,6.20
2019-02-11T05:17:14.015Z,6.60
2019-02-11T05:19:42.089Z,6.30
2019-02-11T05:22:12.787Z,6.30
2019-02-11T05:24:40.790Z,6.40
2019-02-11T05:27:17.356Z,6.50
2019-02-11T05:29:47.650Z,5.60
2019-02-11T05:32:15.707Z,6.20
2019-02-11T05:34:46.665Z,6.20
2019-02-11T05:37:16.465Z,6.30
2019-02-11T05:39:47.116Z,6.00
2019-02-11T05:42:16.463Z,6.00
2019-02-11T05:44:53.792Z,6.20
2019-02-11T05:47:16.441Z,5.90
2019-02-11T05:49:46.060Z,5.80
2019-02-11T05:52:14.635Z,5.90
2019-02-11T05:54:43.464Z,5.60
2019-02-11T05:57:13.667Z,5.30
2019-02-11T05:59:41.754Z,5.70
2019-02-11T06:02:16.427Z,5.60
2019-02-11T06:04:44.550Z,5.80
2019-02-11T06:07:12.536Z,5.90
2019-02-11T06:09:40.550Z,6.00
2019-02-11T06:12:09.707Z,6.00
2019-02-11T06:14:37.757Z,5.90
2019-02-11T06:17:08.262Z,5.90
2019-02-11T06:19:36.376Z,5.70
2019-02-11T06:22:04.440Z,5.60
2019-02-11T06:24:32.823Z,5.60
2019-02-11T06:27:01.024Z,5.60
2019-02-11T06:29:28.980Z,5.70
2019-02-11T06:31:57.431Z,5.80
2019-02-11T06:34:25.394Z,6.10
2019-02-11T06:36:58.178Z,5.90
2019-02-11T06:39:28.650Z,5.90
2019-02-11T06:41:59.451Z,5.70
2019-02-11T06:44:27.945Z,5.50
2019-02-11T06:46:59.386Z,5.50
2019-02-11T06:49:36.628Z,5.50
2019-02-11T06:52:05.188Z,5.10
2019-02-11T06:54:35.033Z,5.60
2019-02-11T06:57:04.266Z,5.40
2019-02-11T06:59:37.146Z,5.30
2019-02-11T07:02:09.096Z,5.70
2019-02-11T07:04:38.763Z,5.40
2019-02-11T07:07:09.921Z,5.50
2019-02-11T07:09:39.279Z,5.40
2019-02-11T07:12:12.358Z,5.50
2019-02-11T07:14:41.859Z,5.80
2019-02-11T07:17:15.886Z,5.70
2019-02-11T07:19:47.018Z,5.30
2019-02-11T07:22:17.242Z,5.70
2019-02-11T07:24:47.278Z,5.20
2019-02-11T07:27:16.618Z,5.00
2019-02-11T07:29:45.139Z,5.40
2019-02-11T07:32:14.255Z,5.60
2019-02-11T07:34:48.276Z,5.60
2019-02-11T07:37:19.196Z,6.00
2019-02-11T07:39:47.388Z,6.10
2019-02-11T07:42:31.298Z,6.30
2019-02-11T07:45:03.512Z,6.00
2019-02-11T07:47:31.763Z,5.90
2019-02-11T07:50:00.452Z,5.80
2019-02-11T07:52:32.258Z,5.90
2019-02-11T07:55:06.151Z,6.00
2019-02-11T07:57:34.840Z,5.80
2019-02-11T08:00:05.458Z,6.10
2019-02-11T08:02:37.633Z,5.90
2019-02-11T08:05:06.213Z,6.00
2019-02-11T08:07:40.475Z,6.20
2019-02-11T08:10:12.619Z,6.00
2019-02-11T08:12:40.896Z,6.00
2019-02-11T08:15:09.371Z,6.00
2019-02-11T08:17:37.468Z,5.80
2019-02-11T08:20:15.311Z,6.10
2019-02-11T08:22:43.330Z,5.90
2019-02-11T08:25:11.956Z,6.50
2019-02-11T08:27:41.400Z,6.40
2019-02-11T08:30:13.997Z,6.20
2019-02-11T08:32:45.108Z,5.90
2019-02-11T08:35:20.588Z,6.00
2019-02-11T08:37:50.187Z,6.00
2019-02-11T08:40:20.489Z,6.10
2019-02-11T08:42:48.996Z,6.30
2019-02-11T08:45:17.173Z,5.30
2019-02-11T08:47:45.223Z,6.30
2019-02-11T08:50:13.449Z,6.40
2019-02-11T08:52:41.375Z,6.80
2019-02-11T08:55:09.222Z,6.30
2019-02-11T08:57:37.210Z,6.30
2019-02-11T09:00:05.527Z,6.50
2019-02-11T09:02:34.228Z,6.60
2019-02-11T09:05:02.125Z,6.60
2019-02-11T09:07:29.977Z,6.80
2019-02-11T09:09:58.017Z,6.70
2019-02-11T09:12:25.867Z,7.00
2019-02-11T09:14:53.736Z,6.70
2019-02-11T09:17:21.699Z,6.90
2019-02-11T09:19:49.581Z,6.90
2019-02-11T09:22:17.435Z,7.00
2019-02-11T09:24:45.387Z,7.40
2019-02-11T09:27:13.302Z,7.70
2019-02-11T09:29:41.130Z,7.60
2019-02-11T09:32:09.063Z,7.40
2019-02-11T09:34:37.015Z,7.50
2019-02-11T09:37:05.192Z,8.00
2019-02-11T09:39:33.246Z,7.80
2019-02-11T09:42:01.181Z,7.90
2019-02-11T09:44:29.894Z,8.10
2019-02-11T09:46:58.278Z,8.20
2019-02-11T09:49:26.282Z,8.60
2019-02-11T09:51:54.587Z,8.30
2019-02-11T09:54:22.684Z,8.10
2019-02-11T09:56:50.796Z,8.10
2019-02-11T09:59:18.864Z,8.30
2019-02-11T10:01:46.873Z,8.40
2019-02-11T10:04:15.148Z,8.60
2019-02-11T10:06:43.129Z,8.70
2019-02-11T10:09:11.235Z,9.30
2019-02-11T10:11:39.378Z,8.70
2019-02-11T10:14:07.272Z,9.00
2019-02-11T10:16:38.032Z,9.40
2019-02-11T10:19:07.424Z,9.50
2019-02-11T10:21:36.459Z,9.50
2019-02-11T10:24:04.636Z,9.60
2019-02-11T10:26:32.451Z,9.50
2019-02-11T10:29:00.286Z,9.50
2019-02-11T10:31:28.207Z,10.10
2019-02-11T10:33:56.130Z,9.50
2019-02-11T10:36:24.098Z,9.40
2019-02-11T10:38:52.006Z,9.50
2019-02-11T10:41:20.147Z,9.00
2019-02-11T10:43:48.117Z,9.30
2019-02-11T10:46:20.944Z,9.60
2019-02-11T10:48:46.118Z,9.60
2019-02-11T10:51:14.109Z,9.90
2019-02-11T10:53:42.129Z,9.40
2019-02-11T10:56:10.250Z,9.50
2019-02-11T10:58:38.261Z,9.30
2019-02-11T11:01:06.268Z,9.50
2019-02-11T11:03:34.358Z,9.40
2019-02-11T11:06:02.235Z,10.00
2019-02-11T11:08:30.194Z,10.00
2019-02-11T11:10:58.175Z,10.00
2019-02-11T11:13:26.131Z,10.00
2019-02-11T11:15:53.959Z,9.90
2019-02-11T11:18:22.073Z,10.00
2019-02-11T11:20:50.086Z,10.30
2019-02-11T11:23:18.054Z,10.10
2019-02-11T11:25:46.941Z,9.90
2019-02-11T11:28:15.011Z,9.90
2019-02-11T11:30:43.016Z,9.40
2019-02-11T11:33:11.000Z,9.40
2019-02-11T11:35:38.878Z,9.40
2019-02-11T11:38:06.828Z,9.30
2019-02-11T11:40:37.557Z,9.70
2019-02-11T11:43:05.630Z,9.30
2019-02-11T11:45:33.767Z,9.20
2019-02-11T11:48:01.687Z,9.10
2019-02-11T11:50:29.551Z,8.90
2019-02-11T11:52:57.992Z,8.60
2019-02-11T11:55:26.376Z,8.90
2019-02-11T11:57:54.214Z,8.90
2019-02-11T12:00:26.651Z,9.20
2019-02-11T12:03:02.579Z,9.00
2019-02-11T12:05:24.779Z,9.10
2019-02-11T12:07:52.740Z,9.20
2019-02-11T12:10:21.440Z,9.60
2019-02-11T12:12:49.374Z,9.30
2019-02-11T12:15:24.833Z,9.60
2019-02-11T12:18:01.718Z,9.60
2019-02-11T12:20:33.961Z,9.70
2019-02-11T12:23:03.824Z,9.50
2019-02-11T12:25:40.543Z,9.20
2019-02-11T12:28:11.926Z,9.30
2019-02-11T12:30:56.007Z,9.30
2019-02-11T12:33:28.139Z,9.10
2019-02-11T12:35:58.423Z,9.20
2019-02-11T12:38:27.112Z,9.30
2019-02-11T12:40:55.558Z,9.30
2019-02-11T12:43:24.720Z,9.10
2019-02-11T12:45:52.995Z,9.00
2019-02-11T12:48:24.834Z,9.00
2019-02-11T12:50:53.316Z,9.80
2019-02-11T12:53:25.368Z,9.40
2019-02-11T12:55:53.987Z,9.40
2019-02-11T12:58:22.051Z,9.70
2019-02-11T13:00:50.124Z,9.90
2019-02-11T13:03:18.480Z,10.30
2019-02-11T13:05:46.858Z,10.50
2019-02-11T13:08:15.583Z,10.30
2019-02-11T13:10:44.010Z,10.40
2019-02-11T13:13:13.864Z,9.90
2019-02-11T13:16:00.187Z,10.00
2019-02-11T13:18:14.470Z,9.50
2019-02-11T13:20:42.881Z,9.70
2019-02-11T13:23:11.027Z,9.50
2019-02-11T13:25:39.213Z,9.50
2019-02-11T13:28:13.228Z,9.30
2019-02-11T13:30:41.496Z,9.40
2019-02-11T13:33:12.503Z,10.20
2019-02-11T13:35:40.650Z,10.10
2019-02-11T13:38:11.951Z,10.00
2019-02-11T13:40:40.240Z,9.80
2019-02-11T13:43:08.556Z,9.50
2019-02-11T13:45:37.496Z,9.50
2019-02-11T13:48:05.365Z,9.60
2019-02-11T13:50:33.680Z,9.50
2019-02-11T13:53:01.947Z,9.60
2019-02-11T13:55:31.635Z,9.50
2019-02-11T13:57:59.677Z,9.50
2019-02-11T14:00:31.449Z,9.60
2019-02-11T14:03:01.574Z,9.60
2019-02-11T14:05:30.514Z,9.50
2019-02-11T14:07:59.979Z,9.60
2019-02-11T14:10:28.182Z,9.50
2019-02-11T14:12:55.962Z,9.60
2019-02-11T14:15:23.890Z,9.70
2019-02-11T14:18:09.295Z,9.90
2019-02-11T14:20:25.288Z,10.00
2019-02-11T14:22:53.270Z,9.80
2019-02-11T14:25:40.651Z,10.00
2019-02-11T14:27:51.368Z,10.00
2019-02-11T14:30:20.159Z,9.80
2019-02-11T14:32:48.035Z,9.90
2019-02-11T14:35:16.455Z,9.60
2019-02-11T14:37:44.248Z,9.80
2019-02-11T14:40:14.161Z,9.30
2019-02-11T14:42:42.011Z,9.50
2019-02-11T14:45:11.243Z,9.00
2019-02-11T14:47:44.385Z,9.50
2019-02-11T14:50:12.771Z,9.40
2019-02-11T14:52:40.545Z,9.70
2019-02-11T14:55:09.974Z,9.90
2019-02-11T14:57:37.767Z,10.00
2019-02-11T15:00:11.749Z,9.50
2019-02-11T15:02:39.598Z,9.20
2019-02-11T15:05:08.080Z,9.20
2019-02-11T15:07:35.901Z,9.20
2019-02-11T15:10:04.649Z,8.60
2019-02-11T15:12:34.229Z,8.60
2019-02-11T15:15:02.296Z,8.80
2019-02-11T15:17:30.129Z,8.80
2019-02-11T15:19:57.956Z,8.60
2019-02-11T15:22:25.925Z,8.50
2019-02-11T15:24:53.721Z,8.80
2019-02-11T15:27:21.702Z,8.70
2019-02-11T15:29:49.652Z,8.80
2019-02-11T15:32:17.608Z,8.80
2019-02-11T15:34:45.451Z,8.60
2019-02-11T15:37:13.237Z,8.80
2019-02-11T15:39:41.250Z,8.90
2019-02-11T15:42:09.174Z,8.60
2019-02-11T15:44:37.092Z,8.80
2019-02-11T15:47:06.263Z,8.50
2019-02-11T15:49:34.382Z,8.40
2019-02-11T15:52:02.199Z,8.20
2019-02-11T15:54:30.189Z,8.30
2019-02-11T15:56:58.028Z,8.30
2019-02-11T15:59:25.810Z,8.40
2019-02-11T16:01:53.805Z,8.30
2019-02-11T16:04:24.444Z,8.20
2019-02-11T16:06:52.289Z,8.40
2019-02-11T16:09:20.191Z,8.10
2019-02-11T16:11:48.342Z,8.30
2019-02-11T16:14:16.330Z,7.90
2019-02-11T16:16:44.305Z,7.80
2019-02-11T16:19:12.425Z,7.70
2019-02-11T16:21:40.316Z,7.70
2019-02-11T16:24:08.227Z,7.70
2019-02-11T16:26:36.173Z,7.40
2019-02-11T16:29:04.178Z,7.90
2019-02-11T16:31:31.990Z,7.80
2019-02-11T16:33:59.794Z,7.80
2019-02-11T16:36:27.885Z,7.70
2019-02-11T16:38:55.891Z,7.40
2019-02-11T16:41:24.961Z,7.40
2019-02-11T16:43:52.747Z,7.40
2019-02-11T16:46:22.215Z,7.30
2019-02-11T16:48:50.321Z,7.70
2019-02-11T16:51:18.300Z,7.60
2019-02-11T16:53:46.089Z,7.50
2019-02-11T16:56:13.897Z,7.30
2019-02-11T16:58:42.941Z,7.60
2019-02-11T17:01:10.936Z,7.50
2019-02-11T17:03:40.015Z,7.00
2019-02-11T17:06:07.855Z,7.30
2019-02-11T17:08:35.666Z,7.10
2019-02-11T17:11:03.733Z,7.10
2019-02-11T17:13:31.759Z,7.10
2019-02-11T17:15:59.677Z,7.30
2019-02-11T17:18:27.749Z,7.40
2019-02-11T17:20:55.729Z,7.40
2019-02-11T17:23:23.564Z,7.30
2019-02-11T17:25:51.388Z,7.10
2019-02-11T17:28:19.553Z,7.20
2019-02-11T17:30:48.105Z,7.20
2019-02-11T17:33:16.000Z,7.00
2019-02-11T17:35:44.073Z,7.00
2019-02-11T17:38:12.058Z,7.20
2019-02-11T17:40:40.196Z,7.20
2019-02-11T17:43:08.087Z,7.10
2019-02-11T17:45:36.182Z,7.00
2019-02-11T17:48:03.993Z,6.80
2019-02-11T17:50:31.843Z,7.00
2019-02-11T17:53:01.777Z,6.80
2019-02-11T17:55:30.668Z,6.80
2019-02-11T17:57:58.520Z,6.60
2019-02-11T18:00:31.743Z,6.60
2019-02-11T18:02:59.584Z,6.90
2019-02-11T18:05:27.375Z,6.70
2019-02-11T18:07:55.508Z,6.90
2019-02-11T18:10:23.495Z,6.80
2019-02-11T18:12:51.381Z,6.50
2019-02-11T18:15:19.327Z,6.50
2019-02-11T18:17:47.135Z,6.30
2019-02-11T18:20:14.924Z,6.50
2019-02-11T18:22:42.841Z,6.70
2019-02-11T18:25:10.652Z,6.50
2019-02-11T18:27:38.765Z,6.20
2019-02-11T18:30:07.629Z,6.40
2019-02-11T18:32:35.534Z,6.30
2019-02-11T18:35:05.389Z,6.30
2019-02-11T18:37:33.438Z,6.10
2019-02-11T18:40:01.332Z,6.20
2019-02-11T18:42:29.429Z,6.00
2019-02-11T18:44:57.363Z,5.90
2019-02-11T18:47:27.271Z,6.00
2019-02-11T18:49:55.256Z,6.00
2019-02-11T18:52:23.337Z,5.50
2019-02-11T18:54:51.312Z,5.50
2019-02-11T18:57:19.282Z,5.90
2019-02-11T18:59:48.145Z,5.60
2019-02-11T19:02:16.163Z,5.60
2019-02-11T19:04:45.069Z,5.60
2019-02-11T19:07:12.960Z,5.70
2019-02-11T19:09:41.092Z,5.50
2019-02-11T19:12:08.884Z,5.20
2019-02-11T19:14:36.686Z,5.50
2019-02-11T19:17:04.705Z,5.40
2019-02-11T19:19:32.522Z,5.20
2019-02-11T19:22:00.377Z,5.60
2019-02-11T19:24:28.993Z,5.40
2019-02-11T19:27:00.223Z,5.70
2019-02-11T19:29:29.622Z,5.40
2019-02-11T19:31:57.670Z,5.40
2019-02-11T19:34:25.533Z,5.40
2019-02-11T19:36:53.383Z,5.50
2019-02-11T19:39:21.609Z,5.10
2019-02-11T19:41:51.452Z,5.40
2019-02-11T19:44:19.519Z,5.40
2019-02-11T19:46:47.552Z,5.40
2019-02-11T19:49:15.388Z,5.20
2019-02-11T19:51:43.291Z,4.80
2019-02-11T19:54:11.257Z,5.40
2019-02-11T19:56:39.076Z,5.10
2019-02-11T19:59:07.114Z,5.00
2019-02-11T20:01:35.092Z,5.10
2019-02-11T20:04:07.472Z,5.00
2019-02-11T20:06:33.256Z,5.00
2019-02-11T20:09:01.153Z,5.50
2019-02-11T20:11:29.132Z,5.00
2019-02-11T20:13:56.975Z,5.10
2019-02-11T20:16:24.825Z,4.80
2019-02-11T20:18:52.756Z,5.00
2019-02-11T20:21:20.610Z,4.80
2019-02-11T20:23:48.795Z,4.80
2019-02-11T20:26:17.914Z,4.70
2019-02-11T20:28:45.833Z,4.70
2019-02-11T20:31:13.837Z,5.10
2019-02-11T20:33:41.769Z,4.80
2019-02-11T20:36:09.796Z,4.70
2019-02-11T20:38:37.764Z,4.70
2019-02-11T20:41:05.587Z,4.50
2019-02-11T20:43:33.477Z,4.50
2019-02-11T20:46:01.545Z,4.60
2019-02-11T20:48:29.406Z,4.30
2019-02-11T20:50:57.426Z,4.60
2019-02-11T20:53:25.240Z,4.40
2019-02-11T20:55:54.155Z,4.80
2019-02-11T20:58:22.063Z,4.80
2019-02-11T21:00:50.025Z,4.70
2019-02-11T21:03:17.855Z,4.70
2019-02-11T21:05:47.458Z,3.90
2019-02-11T21:08:15.844Z,3.60
2019-02-11T21:10:43.795Z,3.70
2019-02-11T21:13:11.745Z,3.90
2019-02-11T21:15:39.541Z,4.00
2019-02-11T21:18:07.492Z,4.20
2019-02-11T21:20:37.377Z,4.00
2019-02-11T21:23:08.228Z,4.10
2019-02-11T21:25:36.345Z,3.90
2019-02-11T21:28:04.259Z,3.90
2019-02-11T21:30:32.484Z,4.30
2019-02-11T21:33:00.352Z,4.40
2019-02-11T21:35:28.162Z,4.00
2019-02-11T21:37:56.189Z,4.00
2019-02-11T21:40:23.973Z,3.80
2019-02-11T21:42:51.956Z,4.10
2019-02-11T21:45:19.909Z,3.50
2019-02-11T21:47:47.730Z,3.50
2019-02-11T21:50:15.582Z,3.50
2019-02-11T21:52:43.535Z,3.70
2019-02-11T21:55:12.391Z,3.80
2019-02-11T21:57:40.248Z,4.10
2019-02-11T22:00:12.017Z,4.00
2019-02-11T22:02:40.008Z,3.80
2019-02-11T22:05:08.253Z,4.10
2019-02-11T22:07:36.063Z,3.90
2019-02-11T22:10:05.683Z,3.80
2019-02-11T22:12:33.447Z,3.50
2019-02-11T22:15:01.427Z,3.50
2019-02-11T22:17:29.446Z,3.80
2019-02-11T22:19:58.227Z,3.80
2019-02-11T22:22:27.415Z,3.80
2019-02-11T22:24:56.539Z,3.50
2019-02-11T22:27:24.490Z,3.10
2019-02-11T22:29:52.276Z,3.50
2019-02-11T22:32:20.305Z,3.50
2019-02-11T22:34:48.275Z,3.30
2019-02-11T22:37:16.076Z,3.50
2019-02-11T22:39:44.025Z,3.50
2019-02-11T22:42:12.917Z,3.40
2019-02-11T22:44:40.740Z,3.70
2019-02-11T22:47:08.632Z,4.00
2019-02-11T22:49:36.436Z,3.50
2019-02-11T22:52:04.211Z,3.50
2019-02-11T22:54:32.173Z,3.60
2019-02-11T22:56:59.988Z,3.60
2019-02-11T22:59:27.909Z,3.70
2019-02-11T23:01:55.762Z,4.00
2019-02-11T23:04:23.753Z,3.60
2019-02-11T23:06:51.565Z,3.60
2019-02-11T23:09:19.676Z,3.50
2019-02-11T23:11:47.676Z,3.40
2019-02-11T23:14:15.684Z,3.50
2019-02-11T23:16:43.472Z,3.70
2019-02-11T23:19:11.392Z,3.80
2019-02-11T23:21:39.187Z,3.90
2019-02-11T23:24:08.283Z,3.80
2019-02-11T23:26:36.230Z,4.00
2019-02-11T23:29:04.233Z,3.90
2019-02-11T23:31:32.016Z,4.00
2019-02-11T23:33:59.772Z,3.70
2019-02-11T23:36:27.735Z,3.70
2019-02-11T23:38:55.693Z,3.50
2019-02-11T23:41:23.491Z,3.50
2019-02-11T23:43:51.267Z,3.50
2019-02-11T23:46:19.310Z,3.70
2019-02-11T23:48:47.079Z,3.60
2019-02-11T23:51:15.021Z,3.70
2019-02-11T23:53:42.915Z,3.50
2019-02-11T23:56:10.716Z,3.30
2019-02-11T23:58:38.486Z,3.70
